Sierra Nevada Aquatic Research Lab (SNARL) Reserve, California Weather observations

Data are for 10 minute period ending at time listed.
 Day   Time   Solar   Ave.   Ave.  Ave.  Vector  Max.   Baro.   Total    
  of    of     Rad.   Air    Rel.  Wind   Wind   Wind  Press.  Precip.   
Year   Day            Temp.  Hum.  Speed  Dir.   Gust                    
2016   (PST)  Kw/m2    F      %     mph   deg.    mph    mb.     in.     
-------------------------------------------------------------------------
 269   18:20   0.00   57.1    23    5.4   205     9.6   792.6    0.00 
 269   18:30   0.00   59.0    22    7.7   177    11.8   792.6    0.00 
 269   18:40   0.00   62.4    20    2.2   186     6.2   792.7    0.00 
 269   18:50   0.00   58.9    23    1.5   201     4.7   792.8    0.00 
 269   19:00   0.00   55.5    25    3.1   235     4.7   792.8    0.00 
 269   19:10   0.00   54.3    25    3.7   232     6.1   792.9    0.00 
 269   19:20   0.00   53.5    26    2.7   256     5.3   793.2    0.00 
 269   19:30   0.00   53.4    29    3.6   299     5.5   793.4    0.00 
 269   19:40   0.00   51.7    31    1.6   269     4.5   793.5    0.00 
 269   19:50   0.00   49.8    30    2.1   201     5.2   793.6    0.00 
 269   20:00   0.00   48.9    31    2.2   231     4.2   793.7    0.00 
 269   20:10   0.00   48.9    35    1.3   262     2.8   793.8    0.00 
 269   20:20   0.00   49.7    33    1.1   225     3.7   793.8    0.00 
 269   20:30   0.00   49.4    34    3.0   244     5.6   793.8    0.00 
 269   20:40   0.00   49.6    31    1.8   237     5.4   793.8    0.00 
 269   20:50   0.00   49.5    32    2.5   320     4.9   793.9    0.00 
 269   21:00   0.00   47.6    33    0.9   266     4.8   793.9    0.00 
 269   21:10   0.00   46.6    34    1.7   349     5.0   793.8    0.00 
 269   21:20   0.00   46.4    34    1.2   340     4.2   793.9    0.00 
 269   21:30   0.00   44.7    36    1.3   236     4.9   793.9    0.00 
 269   21:40   0.00   44.7    37    1.8   289     5.0   793.9    0.00 
 269   21:50   0.00   44.6    37    1.8   299     5.3   793.9    0.00 
 269   22:00   0.00   44.5    37    1.3   284     4.7   793.9    0.00 
 269   22:10   0.00   44.0    42    1.4   333     3.0   793.9    0.00 
 269   22:20   0.00   42.2    48    1.1   320     2.7   793.9    0.00 
 269   22:30   0.00   41.7    45    1.6   268     3.5   793.9    0.00 
 269   22:40   0.00   41.2    43    0.3   185     1.5   793.8    0.00 
 269   22:50   0.00   41.4    45    2.1   282     4.7   793.8    0.00 
 269   23:00   0.00   40.8    42    0.8   262     2.9   793.8    0.00 
 269   23:10   0.00   40.0    43    3.1   245     4.4   793.7    0.00 
 269   23:20   0.00   39.6    46    2.1   282     4.9   793.6    0.00 
 269   23:30   0.00   40.3    48    2.0   323     4.3   793.6    0.00 
 269   23:40   0.00   39.4    46    0.4   290     1.8   793.6    0.00 
 269   23:50   0.00   39.1    47    1.4   259     3.0   793.6    0.00 
 270    0:00   0.00   39.2    50    2.2   300     4.0   793.6    0.00 
 270    0:10   0.00   37.1    48    1.5   212     3.3   793.5    0.00 
 270    0:20   0.00   37.4    53    1.9   268     4.0   793.4    0.00 
 270    0:30   0.00   38.1    50    2.5   263     4.2   793.3    0.00 
 270    0:40   0.00   39.8    49    2.0   304     4.8   793.3    0.00 
 270    0:50   0.00   38.3    48    0.9   296     2.5   793.3    0.00 
 270    1:00   0.00   36.5    49    1.9   265     3.7   793.3    0.00 
 270    1:10   0.00   36.2    48    2.9   209     4.2   793.3    0.00 
 270    1:20   0.00   37.1    51    2.6   309     5.5   793.1    0.00 
 270    1:30   0.00   37.0    50    1.3   230     3.9   793.1    0.00 
 270    1:40   0.00   37.1    52    0.4    94     1.8   793.0    0.00 
 270    1:50   0.00   35.9    54    1.1   248     3.0   793.1    0.00 
 270    2:00   0.00   34.9    54    1.1   202     2.3   793.0    0.00 
 270    2:10   0.00   36.2    55    0.3   342     1.5   793.0    0.00 
 270    2:20   0.00   34.7    54    1.6    88     2.6   793.0    0.00 
 270    2:30   0.00   33.2    52    1.1   133     2.5   793.0    0.00 
 270    2:40   0.00   34.6    53    1.8   202     3.3   792.9    0.00 
 270    2:50   0.00   34.8    52    1.8   179     3.0   792.9    0.00 
 270    3:00   0.00   34.8    59    2.8   306     4.4   792.9    0.00 
 270    3:10   0.00   34.3    58    2.3   317     5.4   792.8    0.00 
 270    3:20   0.00   33.1    54    2.6   327     7.2   792.8    0.00 
 270    3:30   0.00   32.8    54    1.6   260     4.2   792.8    0.00 
 270    3:40   0.00   32.3    58    1.3   286     2.6   792.8    0.00 
 270    3:50   0.00   31.4    60    1.6   240     2.9   792.8    0.00 
 270    4:00   0.00   31.2    62    2.3   253     3.4   792.6    0.00 
 270    4:10   0.00   31.9    61    1.8   314     4.6   792.5    0.00 
 270    4:20   0.00   31.5    58    0.6   117     2.1   792.5    0.00 
 270    4:30   0.00   30.9    58    0.3   177     1.0   792.5    0.00 
 270    4:40   0.00   30.6    60    1.1   131     2.6   792.5    0.00 
 270    4:50   0.00   31.7    58    0.7   117     2.7   792.6    0.00 
 270    5:00   0.00   30.8    56    1.6   204     2.6   792.6    0.00 
 270    5:10   0.00   32.4    57    1.3   257     2.9   792.5    0.00 
 270    5:20   0.00   32.1    57    0.6   237     2.4   792.6    0.00 
 270    5:30   0.00   30.9    58    1.2   118     3.1   792.7    0.00 
 270    5:40   0.00   31.4    55    1.9   219     3.4   792.7    0.00 
 270    5:50   0.00   32.2    59    2.5   278     4.0   792.6    0.00 
 270    6:00   0.00   31.9    61    1.3   358     4.0   792.7    0.00 
 270    6:10   0.02   30.9    58    2.1    96     4.5   792.7    0.00 
 270    6:20   0.05   33.7    54    1.9    93     4.1   792.8    0.00 
 270    6:30   0.08   38.1    50    0.9    55     2.1   793.0    0.00 
 270    6:40   0.12   41.1    44    1.6   208     2.6   793.1    0.00 
 270    6:50   0.15   45.1    40    0.5   267     1.9   793.1    0.00 
 270    7:00   0.19   47.6    38    0.9    80     2.7   793.3    0.00 
 270    7:10   0.22   49.2    36    0.9    64     1.8   793.4    0.00 
 270    7:20   0.26   50.7    34    0.4    78     1.5   793.4    0.00 
 270    7:30   0.27   53.2    30    0.6   207     1.8   793.4    0.00 
 270    7:40   0.33   55.9    28    0.4   324     1.8   793.4    0.00 
 270    7:50   0.36   56.9    28    1.0   330     2.1   793.3    0.00 
 270    8:00   0.40   58.2    27    1.7    80     3.3   793.3    0.00 
 270    8:10   0.43   58.3    28    2.1    65     4.2   793.4    0.00 
 270    8:20   0.46   57.9    28    3.0    63     5.0   793.4    0.00 
 270    8:30   0.49   58.3    27    2.1    67     4.7   793.4    0.00 
 270    8:40   0.53   59.8    26    2.2    65     4.5   793.4    0.00 
 270    8:50   0.56   61.0    25    2.0    39     3.7   793.3    0.00 
 270    9:00   0.58   63.2    23    1.7    52     3.7   793.1    0.00 
 270    9:10   0.61   65.0    22    2.4    76     4.7   793.0    0.00 
 270    9:20   0.64   65.9    21    2.8    74     5.3   792.8    0.00 
 270    9:30   0.66   66.9    20    3.5    73     6.9   792.7    0.00 
 270    9:40   0.69   66.9    20    4.7    84     8.5   792.6    0.00 
 270    9:50   0.71   67.5    19    4.0    77     8.0   792.6    0.00 
 270   10:00   0.73   68.1    18    2.8    36     7.6   792.5    0.00 
 270   10:10   0.75   68.9    18    2.9    68     6.2   792.4    0.00 
 270   10:20   0.77   69.4    18    4.6    90     8.0   792.3    0.00 
 270   10:30   0.77   70.9    17    1.6   168     4.1   792.3    0.00 
 270   10:40   0.77   71.3    17    3.4    72     6.1   792.3    0.00 
 270   10:50   0.81   70.6    18    3.0    75     6.6   792.3    0.00 
 270   11:00   0.82   71.6    17    2.8    50     6.9   792.2    0.00 
 270   11:10   0.83   72.6    16    2.7   100     5.0   792.1    0.00 
 270   11:20   0.83   73.2    16    5.1    89    13.0   792.0    0.00 
 270   11:30   0.84   72.3    16    4.8    66    10.7   791.9    0.00 
 270   11:40   0.84   73.0    16    5.0   108    10.4   791.8    0.00 
 270   11:50   0.84   73.6    15    5.6   102    12.1   791.7    0.00 
 270   12:00   0.84   74.1    15    5.0    90    11.7   791.6    0.00 
 270   12:10   0.84   74.2    15    7.6    86    16.2   791.5    0.00 
 270   12:20   0.83   74.0    15    7.6    90    14.2   791.5    0.00 
 270   12:30   0.83   74.2    15    4.9    86    10.5   791.4    0.00 
 270   12:40   0.83   75.3    14    2.6    96     7.6   791.3    0.00 
 270   12:50   0.82   75.7    15    5.1    62    11.5   791.2    0.00 
 270   13:00   0.81   75.4    15    4.3    73    10.9   791.1    0.00 
 270   13:10   0.79   76.2    14    3.9    76    11.7   791.0    0.00 
 270   13:20   0.78   75.2    13    4.0    62     9.9   790.8    0.00 
 270   13:30   0.76   76.0    14    5.3    72    14.2   790.7    0.00 
 270   13:40   0.74   76.1    13    4.6   108    12.9   790.6    0.00 
 270   13:50   0.72   76.3    13    5.1   114    11.0   790.5    0.00 
 270   14:00   0.69   76.1    14    4.9    66    11.3   790.4    0.00 
 270   14:10   0.67   75.7    13    7.2    88    13.5   790.3    0.00 
 270   14:20   0.65   75.9    13    6.5   100    12.6   790.3    0.00 
 270   14:30   0.62   76.1    13    6.5    96    12.9   790.2    0.00 
 270   14:40   0.59   76.6    14    8.4    96    14.8   790.1    0.00 
 270   14:50   0.56   75.7    14    7.7    90    14.4   790.0    0.00 
 270   15:00   0.53   75.6    14    8.3   102    12.9   789.9    0.00 
 270   15:10   0.50   75.7    13    9.2    97    14.6   789.9    0.00 
 270   15:20   0.47   75.4    13    8.3    96    12.4   789.8    0.00 
 270   15:30   0.44   75.5    14    8.3    89    13.2   789.7    0.00 
 270   15:40   0.41   75.2    13    8.5    89    14.2   789.7    0.00 
 270   15:50   0.37   74.9    13    9.0    92    12.7   789.6    0.00 
 270   16:00   0.33   74.4    14    7.7    89    12.1   789.6    0.00 
 270   16:10   0.30   74.1    14    8.4    97    12.9   789.6    0.00 
 270   16:20   0.26   73.3    15    9.6    99    14.5   789.5    0.00 
 270   16:30   0.23   73.0    15    9.3    97    14.2   789.4    0.00 
 270   16:40   0.19   72.2    16    8.3   111    12.6   789.4    0.00 
 270   16:50   0.16   71.5    15    8.4   122    11.7   789.4    0.00 
 270   17:00   0.13   70.7    15    8.0   121    11.9   789.3    0.00 
 270   17:10   0.09   69.9    15    8.4   115    11.1   789.2    0.00 
 270   17:20   0.04   68.7    16    7.1   125    11.1   789.1    0.00 
 270   17:30   0.01   65.9    17    6.2   134     8.0   789.1    0.00 
 270   17:40   0.00   63.1    18    6.3   148     7.7   789.0    0.00 
 270   17:50   0.00   61.2    21    2.5    70     6.9   789.0    0.00 
 270   18:00   0.00   58.9    23    1.0   186     2.7   789.1    0.00 
 270   18:10   0.00   55.8    23    2.0   193     4.2   789.2    0.00 

Return to SNARL Reserve graphs page.


Western Regional Climate Center,wrcc@dri.edu